Time;durP1;ratioP1;P1;durP2;ratioP2;P2;SDS_P1;SDS_P2;PMS_P1;PMS_P2;Temp;Humidity;BMP_temperature;BMP_pressure;BME280_temperature;BME280_humidity;BME280_pressure;Samples;Min_cycle;Max_cycle;Signal;HPM_P1;HPM_P2
2021/12/25 00:01:27;;;;;;;6.50;3.83;;;;;;;;;;5093706;28;20480;-88
2021/12/25 00:03:54;;;;;;;7.00;3.45;;;;;;;;;;5093877;28;20065;-88
2021/12/25 00:06:19;;;;;;;10.77;4.00;;;;;;;;;;5093775;28;20107;-88
2021/12/25 00:08:45;;;;;;;9.00;3.72;;;;;;;;;;5093582;28;20157;-88
2021/12/25 00:11:11;;;;;;;8.85;3.95;;;;;;;;;;5094958;28;20028;-88
2021/12/25 00:13:38;;;;;;;7.95;3.95;;;;;;;;;;5094895;28;20019;-88
2021/12/25 00:16:04;;;;;;;10.07;3.58;;;;;;;;;;5093566;28;20020;-88
2021/12/25 00:18:29;;;;;;;11.05;4.25;;;;;;;;;;5093160;28;20028;-88
2021/12/25 00:20:54;;;;;;;7.07;3.90;;;;;;;;;;5093118;28;20031;-88
2021/12/25 00:23:19;;;;;;;6.90;4.30;;;;;;;;;;5093858;28;20437;-88
2021/12/25 00:25:50;;;;;;;9.00;4.32;;;;;;;;;;5094582;28;20111;-88
2021/12/25 00:28:46;;;;;;;10.25;4.25;;;;;;;;;;5092357;28;20062;-88
2021/12/25 00:36:11;;;;;;;4.82;2.38;;;;;;;;;;5094357;28;20436;-87
2021/12/25 00:38:37;;;;;;;5.78;2.38;;;;;;;;;;5092573;28;20128;-88
2021/12/25 00:41:05;;;;;;;9.07;2.15;;;;;;;;;;5092347;28;20055;-88
2021/12/25 00:43:31;;;;;;;5.20;2.30;;;;;;;;;;5094050;28;20380;-88
2021/12/25 00:45:56;;;;;;;11.10;3.70;;;;;;;;;;5093335;28;20046;-87
2021/12/25 00:48:21;;;;;;;8.35;3.00;;;;;;;;;;5091981;28;20444;-87
2021/12/25 00:50:46;;;;;;;3.72;2.17;;;;;;;;;;5093463;28;20086;-87
2021/12/25 00:53:11;;;;;;;6.22;2.83;;;;;;;;;;5090188;28;20024;-88
2021/12/25 00:55:37;;;;;;;5.25;2.08;;;;;;;;;;5090503;28;20437;-88
2021/12/25 00:58:02;;;;;;;8.77;2.60;;;;;;;;;;5091325;28;20046;-88
2021/12/25 01:00:27;;;;;;;6.20;2.80;;;;;;;;;;5089800;28;20115;-87
2021/12/25 01:02:52;;;;;;;9.25;2.60;;;;;;;;;;5089878;28;20383;-88
2021/12/25 01:05:18;;;;;;;5.35;2.03;;;;;;;;;;5091148;28;20032;-87
2021/12/25 01:07:43;;;;;;;4.30;2.55;;;;;;;;;;5089681;28;20028;-88
2021/12/25 01:10:13;;;;;;;4.53;2.58;;;;;;;;;;5091221;28;20034;-88
2021/12/25 01:12:58;;;;;;;6.78;2.47;;;;;;;;;;5089488;28;20399;-88
2021/12/25 01:15:33;;;;;;;7.15;2.80;;;;;;;;;;5089714;28;20048;-88
2021/12/25 01:24:00;;;;;;;6.82;2.15;;;;;;;;;;5091531;28;20535;-87
2021/12/25 01:31:43;;;;;;;3.08;1.88;;;;;;;;;;5093055;28;20059;-88
2021/12/25 01:39:46;;;;;;;7.68;2.15;;;;;;;;;;5092438;28;20058;-87
2021/12/25 01:47:47;;;;;;;3.80;2.20;;;;;;;;;;5092328;28;20066;-87
2021/12/25 01:50:13;;;;;;;5.28;2.50;;;;;;;;;;5091764;28;20345;-87
2021/12/25 01:52:38;;;;;;;7.97;3.08;;;;;;;;;;5092409;28;20099;-87
2021/12/25 01:55:05;;;;;;;8.02;3.00;;;;;;;;;;5091088;28;20475;-87
2021/12/25 01:57:31;;;;;;;4.53;2.40;;;;;;;;;;5092629;28;20077;-87
2021/12/25 01:59:57;;;;;;;8.48;2.67;;;;;;;;;;5092201;28;20020;-87
2021/12/25 02:02:22;;;;;;;7.82;3.10;;;;;;;;;;5092271;28;20793;-87
2021/12/25 02:04:47;;;;;;;8.68;2.53;;;;;;;;;;5093104;28;20127;-87
2021/12/25 02:07:13;;;;;;;5.50;2.63;;;;;;;;;;5095939;28;20027;-88
2021/12/25 02:09:38;;;;;;;6.13;2.40;;;;;;;;;;5095205;28;20028;-87
2021/12/25 02:12:04;;;;;;;6.32;2.28;;;;;;;;;;5096050;28;20062;-87
2021/12/25 02:14:30;;;;;;;9.02;2.88;;;;;;;;;;5096278;28;20494;-87
2021/12/25 02:17:02;;;;;;;5.28;2.10;;;;;;;;;;5094885;28;20035;-87
2021/12/25 02:19:43;;;;;;;7.03;2.38;;;;;;;;;;5095931;28;20024;-87
2021/12/25 02:22:09;;;;;;;3.15;2.00;;;;;;;;;;5094780;28;20121;-87
2021/12/25 02:24:36;;;;;;;8.23;2.47;;;;;;;;;;5095728;28;20091;-87
2021/12/25 02:27:01;;;;;;;5.55;2.58;;;;;;;;;;5095572;28;20051;-87
2021/12/25 02:29:26;;;;;;;7.57;2.10;;;;;;;;;;5094835;28;20063;-87
2021/12/25 02:31:51;;;;;;;3.92;2.10;;;;;;;;;;5096261;28;20020;-87
2021/12/25 02:34:17;;;;;;;6.25;2.28;;;;;;;;;;5095860;28;20019;-87
2021/12/25 02:36:42;;;;;;;4.40;2.30;;;;;;;;;;5095952;28;20426;-87
2021/12/25 02:39:07;;;;;;;5.30;1.83;;;;;;;;;;5095567;28;20285;-87
2021/12/25 02:41:32;;;;;;;12.23;2.47;;;;;;;;;;5094820;28;20028;-87
2021/12/25 02:43:58;;;;;;;7.50;2.10;;;;;;;;;;5095624;28;20099;-88
2021/12/25 02:46:24;;;;;;;7.03;2.25;;;;;;;;;;5094343;28;20262;-88
2021/12/25 02:48:52;;;;;;;4.43;2.30;;;;;;;;;;5094825;28;20456;-87
2021/12/25 02:51:17;;;;;;;3.60;2.10;;;;;;;;;;5095633;28;20028;-87
2021/12/25 02:53:42;;;;;;;7.85;2.00;;;;;;;;;;5094773;28;20552;-87
2021/12/25 02:56:09;;;;;;;6.90;2.05;;;;;;;;;;5093731;28;20031;-87
2021/12/25 02:58:35;;;;;;;9.80;2.30;;;;;;;;;;5092124;28;20467;-88
2021/12/25 03:01:03;;;;;;;6.30;2.45;;;;;;;;;;5091975;28;20048;-87
2021/12/25 03:03:28;;;;;;;5.80;2.55;;;;;;;;;;5093626;28;20519;-87
2021/12/25 03:05:53;;;;;;;4.78;2.95;;;;;;;;;;5091858;28;20115;-87
2021/12/25 03:08:19;;;;;;;4.55;2.10;;;;;;;;;;5091915;28;20048;-87
2021/12/25 03:10:45;;;;;;;6.28;1.90;;;;;;;;;;5093476;28;20544;-87
2021/12/25 03:15:46;;;;;;;6.63;1.88;;;;;;;;;;5092794;28;20017;-87
2021/12/25 03:18:23;;;;;;;3.13;2.28;;;;;;;;;;5091622;28;20057;-87
2021/12/25 03:20:49;;;;;;;7.60;2.97;;;;;;;;;;5091704;28;20549;-87
2021/12/25 03:23:16;;;;;;;2.55;1.95;;;;;;;;;;5093245;28;20024;-87
2021/12/25 03:25:42;;;;;;;6.03;2.00;;;;;;;;;;5091459;28;20020;-87
2021/12/25 03:28:08;;;;;;;6.00;2.40;;;;;;;;;;5091150;28;20028;-87
2021/12/25 03:30:37;;;;;;;6.25;2.25;;;;;;;;;;5093297;28;20017;-87
2021/12/25 03:33:03;;;;;;;2.08;1.88;;;;;;;;;;5093062;28;20023;-87
2021/12/25 03:35:28;;;;;;;7.25;1.92;;;;;;;;;;5093688;28;20107;-87
2021/12/25 03:37:53;;;;;;;3.92;2.30;;;;;;;;;;5092820;28;20420;-87
2021/12/25 03:40:18;;;;;;;6.28;2.00;;;;;;;;;;5092040;28;20028;-87
2021/12/25 03:42:44;;;;;;;6.05;1.90;;;;;;;;;;5091500;28;20483;-87
2021/12/25 03:45:09;;;;;;;3.05;1.80;;;;;;;;;;5091916;28;20059;-87
2021/12/25 03:47:37;;;;;;;7.47;2.47;;;;;;;;;;5092508;28;20052;-87
2021/12/25 03:53:08;;;;;;;2.80;1.58;;;;;;;;;;5092452;28;20038;-87
2021/12/25 03:58:26;;;;;;;5.35;2.22;;;;;;;;;;5094611;28;20031;-87
2021/12/25 04:00:58;;;;;;;5.88;1.70;;;;;;;;;;5093290;28;20028;-87
2021/12/25 04:03:41;;;;;;;7.43;1.92;;;;;;;;;;5092016;28;20510;-87
2021/12/25 04:06:09;;;;;;;8.90;3.03;;;;;;;;;;5092554;28;20020;-87
2021/12/25 04:08:41;;;;;;;8.40;2.53;;;;;;;;;;5091137;28;20119;-87
2021/12/25 04:11:12;;;;;;;;;;;;;;;;;;5093719;28;20020;-87
2021/12/25 04:13:37;;;;;;;6.13;2.03;;;;;;;;;;5092259;28;20667;-88
2021/12/25 04:16:02;;;;;;;7.77;2.77;;;;;;;;;;5092209;28;20274;-88
2021/12/25 04:18:28;;;;;;;3.45;2.00;;;;;;;;;;5090843;28;20292;-87
2021/12/25 04:20:53;;;;;;;4.63;2.15;;;;;;;;;;5090514;28;20016;-87
2021/12/25 04:23:23;;;;;;;3.30;2.00;;;;;;;;;;5090157;28;20063;-87
2021/12/25 04:25:49;;;;;;;5.20;2.13;;;;;;;;;;5090461;28;20036;-87
2021/12/25 04:28:31;;;;;;;5.10;2.50;;;;;;;;;;5089006;28;20046;-87
2021/12/25 04:31:29;;;;;;;8.77;2.60;;;;;;;;;;5091749;28;20024;-87
2021/12/25 05:01:36;;;;;;;8.27;2.33;;;;;;;;;;5091499;28;20482;-87
2021/12/25 05:04:00;;;;;;;4.90;2.40;;;;;;;;;;5091206;28;20038;-87
2021/12/25 05:06:25;;;;;;;3.35;2.10;;;;;;;;;;5089890;28;20024;-87
2021/12/25 05:08:51;;;;;;;6.47;2.53;;;;;;;;;;5090791;28;20035;-87
2021/12/25 05:11:16;;;;;;;6.68;2.45;;;;;;;;;;5091412;28;20028;-87
2021/12/25 05:13:43;;;;;;;5.20;2.50;;;;;;;;;;5093360;28;20811;-87
2021/12/25 05:16:09;;;;;;;4.22;2.15;;;;;;;;;;5092386;28;20077;-87
2021/12/25 05:18:34;;;;;;;8.15;2.30;;;;;;;;;;5092039;28;20024;-87
2021/12/25 05:20:59;;;;;;;4.75;2.33;;;;;;;;;;5091670;28;20095;-87
2021/12/25 05:23:25;;;;;;;5.93;2.50;;;;;;;;;;5091548;28;20762;-87
2021/12/25 05:25:50;;;;;;;8.38;2.85;;;;;;;;;;5092725;28;20027;-87
2021/12/25 05:28:23;;;;;;;6.32;2.03;;;;;;;;;;5091251;28;20055;-87
2021/12/25 05:30:49;;;;;;;6.07;2.35;;;;;;;;;;5091818;28;20115;-87
2021/12/25 05:33:14;;;;;;;8.75;2.40;;;;;;;;;;5091759;28;20111;-87
2021/12/25 05:35:39;;;;;;;4.85;2.15;;;;;;;;;;5093739;28;20052;-87
2021/12/25 05:38:09;;;;;;;6.80;1.83;;;;;;;;;;5092123;28;20095;-87
2021/12/25 05:40:35;;;;;;;7.07;1.90;;;;;;;;;;5092550;28;20024;-87
2021/12/25 05:43:00;;;;;;;5.00;1.63;;;;;;;;;;5092032;28;20035;-87
2021/12/25 05:45:25;;;;;;;2.85;1.70;;;;;;;;;;5090690;28;20028;-87
2021/12/25 05:47:50;;;;;;;8.10;1.80;;;;;;;;;;5090709;28;20083;-87
2021/12/25 05:50:17;;;;;;;5.45;2.30;;;;;;;;;;5091246;28;20140;-87
2021/12/25 05:52:42;;;;;;;5.65;1.98;;;;;;;;;;5091283;28;20525;-87
2021/12/25 05:55:07;;;;;;;6.95;2.10;;;;;;;;;;5092203;28;20028;-87
2021/12/25 05:57:32;;;;;;;7.35;2.33;;;;;;;;;;5091671;28;20421;-87
2021/12/25 05:59:58;;;;;;;6.22;2.00;;;;;;;;;;5092252;28;20037;-87
2021/12/25 06:02:23;;;;;;;4.80;1.83;;;;;;;;;;5090716;28;20012;-86
2021/12/25 06:04:48;;;;;;;3.28;2.20;;;;;;;;;;5090756;28;20077;-86
2021/12/25 06:07:13;;;;;;;3.72;2.25;;;;;;;;;;5091616;28;20042;-87
2021/12/25 06:09:39;;;;;;;3.67;1.95;;;;;;;;;;5089282;28;20479;-87
2021/12/25 06:12:07;;;;;;;4.78;1.70;;;;;;;;;;5090212;28;20728;-87
2021/12/25 06:14:33;;;;;;;4.00;1.88;;;;;;;;;;5089911;28;20016;-87
2021/12/25 06:16:58;;;;;;;4.55;2.03;;;;;;;;;;5088448;28;20051;-87
2021/12/25 06:19:23;;;;;;;4.88;1.83;;;;;;;;;;5089750;28;20055;-87
2021/12/25 06:21:48;;;;;;;7.30;2.87;;;;;;;;;;5088538;28;20020;-87
2021/12/25 06:24:15;;;;;;;5.30;1.80;;;;;;;;;;5090071;28;20266;-87
2021/12/25 06:26:40;;;;;;;4.63;2.10;;;;;;;;;;5089994;28;20387;-87
2021/12/25 06:29:06;;;;;;;4.57;1.88;;;;;;;;;;5089682;28;20051;-87
2021/12/25 06:31:31;;;;;;;4.32;2.10;;;;;;;;;;5089782;28;20027;-87
2021/12/25 06:33:58;;;;;;;6.45;2.28;;;;;;;;;;5089193;28;20047;-86
2021/12/25 06:36:23;;;;;;;7.82;1.90;;;;;;;;;;5089053;28;20054;-86
2021/12/25 06:38:48;;;;;;;5.93;2.22;;;;;;;;;;5088951;28;20089;-86
2021/12/25 06:41:14;;;;;;;5.53;2.17;;;;;;;;;;5089775;28;20027;-86
2021/12/25 06:43:39;;;;;;;6.82;3.03;;;;;;;;;;5089496;28;20020;-86
2021/12/25 06:46:05;;;;;;;8.30;2.00;;;;;;;;;;5090308;28;20460;-86
2021/12/25 06:48:30;;;;;;;6.57;2.10;;;;;;;;;;5091562;28;20063;-87
2021/12/25 06:50:56;;;;;;;4.03;1.83;;;;;;;;;;5093125;28;20032;-87
2021/12/25 06:53:21;;;;;;;4.55;2.00;;;;;;;;;;5095582;28;20028;-86
2021/12/25 06:55:47;;;;;;;4.38;2.03;;;;;;;;;;5095511;28;20008;-86
2021/12/25 06:58:12;;;;;;;7.43;2.20;;;;;;;;;;5095124;28;20376;-86
2021/12/25 07:00:37;;;;;;;4.38;1.98;;;;;;;;;;5094045;28;20031;-86
2021/12/25 07:03:02;;;;;;;9.25;2.13;;;;;;;;;;5095513;28;20090;-86
2021/12/25 07:05:27;;;;;;;8.32;2.50;;;;;;;;;;5095345;28;20020;-86
2021/12/25 07:07:53;;;;;;;8.70;2.20;;;;;;;;;;5094041;28;20028;-87
2021/12/25 07:10:18;;;;;;;6.07;2.30;;;;;;;;;;5095944;28;20345;-87
2021/12/25 07:12:46;;;;;;;3.60;1.70;;;;;;;;;;5095898;28;20015;-87
2021/12/25 07:15:12;;;;;;;5.82;2.30;;;;;;;;;;5094201;28;20039;-87
2021/12/25 07:17:37;;;;;;;5.28;2.17;;;;;;;;;;5095471;28;20020;-87
2021/12/25 07:20:03;;;;;;;4.03;2.00;;;;;;;;;;5093484;28;20027;-86
2021/12/25 07:22:28;;;;;;;5.05;2.33;;;;;;;;;;5093471;28;20022;-86
2021/12/25 07:24:54;;;;;;;5.03;2.05;;;;;;;;;;5093471;28;20016;-86
2021/12/25 07:27:19;;;;;;;4.55;2.03;;;;;;;;;;5093537;28;20020;-87
2021/12/25 07:29:44;;;;;;;3.13;1.85;;;;;;;;;;5093173;28;20103;-87
2021/12/25 07:32:09;;;;;;;11.60;2.83;;;;;;;;;;5093271;28;20022;-87
2021/12/25 07:34:36;;;;;;;7.38;2.42;;;;;;;;;;5093798;28;20020;-87
2021/12/25 07:37:01;;;;;;;3.38;1.98;;;;;;;;;;5093759;28;20032;-87
2021/12/25 07:39:27;;;;;;;6.30;2.42;;;;;;;;;;5095367;28;20162;-87
2021/12/25 07:41:52;;;;;;;5.57;2.00;;;;;;;;;;5093410;28;20020;-87
2021/12/25 07:44:17;;;;;;;6.53;2.60;;;;;;;;;;5094808;28;20078;-87
2021/12/25 07:46:44;;;;;;;6.88;1.98;;;;;;;;;;5093779;28;20106;-86
2021/12/25 07:49:16;;;;;;;4.80;2.85;;;;;;;;;;5095075;28;20122;-87
2021/12/25 07:51:41;;;;;;;4.47;2.38;;;;;;;;;;5094880;28;20016;-87
2021/12/25 07:54:07;;;;;;;4.72;2.33;;;;;;;;;;5094467;28;20753;-86
2021/12/25 07:56:32;;;;;;;4.93;2.35;;;;;;;;;;5094491;28;20024;-87
2021/12/25 07:58:57;;;;;;;4.07;2.63;;;;;;;;;;5093251;28;20016;-86
2021/12/25 08:01:23;;;;;;;6.75;2.50;;;;;;;;;;5092638;28;20016;-87
2021/12/25 08:03:48;;;;;;;5.00;2.45;;;;;;;;;;5093027;28;20024;-87
2021/12/25 08:06:13;;;;;;;3.28;2.00;;;;;;;;;;5092837;28;20372;-87
2021/12/25 08:08:38;;;;;;;3.97;2.20;;;;;;;;;;5094003;28;20423;-86
2021/12/25 08:11:03;;;;;;;5.80;2.05;;;;;;;;;;5092769;28;20016;-87
2021/12/25 08:13:29;;;;;;;6.30;1.67;;;;;;;;;;5093351;28;20025;-87
2021/12/25 08:15:54;;;;;;;6.20;1.80;;;;;;;;;;5093135;28;20260;-87
2021/12/25 08:18:19;;;;;;;4.57;2.23;;;;;;;;;;5093922;28;20265;-86
2021/12/25 08:20:44;;;;;;;4.13;2.20;;;;;;;;;;5092905;28;20262;-86
2021/12/25 08:23:09;;;;;;;6.43;2.65;;;;;;;;;;5094466;28;20031;-87
2021/12/25 08:25:35;;;;;;;3.65;2.25;;;;;;;;;;5094199;28;20485;-87
2021/12/25 08:28:00;;;;;;;3.58;2.00;;;;;;;;;;5093074;28;20031;-86
2021/12/25 08:30:29;;;;;;;3.85;2.25;;;;;;;;;;5093995;28;20023;-87
2021/12/25 08:32:59;;;;;;;3.60;2.20;;;;;;;;;;5093989;28;20024;-86
2021/12/25 08:35:25;;;;;;;6.72;2.28;;;;;;;;;;5102486;28;20024;-91
2021/12/25 08:37:51;;;;;;;6.15;2.17;;;;;;;;;;5101511;28;20110;-93
2021/12/25 08:40:16;;;;;;;4.72;2.40;;;;;;;;;;5103775;28;20024;-93
2021/12/25 08:42:51;;;;;;;6.68;2.58;;;;;;;;;;5110711;28;20016;-93
2021/12/25 08:48:00;;;;;;;5.18;2.92;;;;;;;;;;5107902;28;20105;-93
2021/12/25 08:50:26;;;;;;;4.68;2.47;;;;;;;;;;5106297;28;20012;-93
2021/12/25 08:52:52;;;;;;;7.90;3.67;;;;;;;;;;5108768;28;20023;-93
2021/12/25 08:55:17;;;;;;;7.20;3.33;;;;;;;;;;5110092;28;20031;-93
2021/12/25 08:57:43;;;;;;;7.20;3.60;;;;;;;;;;5106894;28;20020;-93
2021/12/25 09:00:09;;;;;;;6.28;3.50;;;;;;;;;;5107420;28;20114;-93
2021/12/25 09:02:34;;;;;;;5.10;2.55;;;;;;;;;;5110317;28;20081;-93
2021/12/25 09:04:59;;;;;;;10.30;3.80;;;;;;;;;;5108383;28;20108;-93
2021/12/25 09:07:25;;;;;;;4.43;2.40;;;;;;;;;;5110346;28;20016;-93
2021/12/25 09:09:51;;;;;;;6.88;2.60;;;;;;;;;;5107866;28;20026;-93
2021/12/25 09:12:17;;;;;;;8.50;2.65;;;;;;;;;;5113479;28;20020;-93
2021/12/25 09:14:43;;;;;;;5.13;2.70;;;;;;;;;;5112731;28;20019;-93
2021/12/25 09:17:09;;;;;;;5.43;3.00;;;;;;;;;;5112269;28;20016;-93
2021/12/25 09:19:35;;;;;;;6.03;2.83;;;;;;;;;;5115333;28;20030;-93
2021/12/25 09:22:16;;;;;;;12.73;5.03;;;;;;;;;;5114628;28;20016;-93
2021/12/25 09:24:46;;;;;;;6.45;3.08;;;;;;;;;;5113247;28;20115;-93
2021/12/25 09:27:11;;;;;;;4.75;2.83;;;;;;;;;;5115421;28;20016;-94
2021/12/25 09:29:37;;;;;;;4.65;2.80;;;;;;;;;;5114120;28;20036;-93
2021/12/25 09:32:04;;;;;;;8.05;3.65;;;;;;;;;;5113960;28;20031;-93
2021/12/25 09:34:30;;;;;;;8.23;2.45;;;;;;;;;;5113743;28;20024;-93
2021/12/25 09:37:06;;;;;;;5.82;2.40;;;;;;;;;;5112590;28;20024;-93
2021/12/25 09:39:32;;;;;;;5.93;1.75;;;;;;;;;;5108366;28;20039;-93
2021/12/25 09:41:58;;;;;;;9.38;2.08;;;;;;;;;;5110176;28;20046;-92
2021/12/25 09:44:23;;;;;;;4.50;2.10;;;;;;;;;;5104852;28;20020;-93
2021/12/25 09:46:49;;;;;;;5.55;2.08;;;;;;;;;;5102697;28;20055;-92
2021/12/25 09:49:14;;;;;;;7.15;2.13;;;;;;;;;;5097027;28;20039;-92
2021/12/25 09:51:40;;;;;;;5.15;2.58;;;;;;;;;;5094917;28;20020;-93
2021/12/25 09:54:07;;;;;;;3.78;2.25;;;;;;;;;;5096005;28;20111;-93
2021/12/25 09:56:34;;;;;;;4.90;1.88;;;;;;;;;;5094983;28;20032;-93
2021/12/25 09:58:59;;;;;;;4.15;1.70;;;;;;;;;;5092867;28;20034;-86
2021/12/25 10:01:39;;;;;;;3.53;2.05;;;;;;;;;;5092580;28;20472;-87
2021/12/25 10:04:05;;;;;;;7.63;2.30;;;;;;;;;;5093057;28;20102;-87
2021/12/25 10:06:31;;;;;;;4.07;1.88;;;;;;;;;;5092974;28;20099;-87
2021/12/25 10:08:57;;;;;;;5.20;2.58;;;;;;;;;;5091234;28;20496;-87
2021/12/25 10:11:22;;;;;;;5.03;2.30;;;;;;;;;;5091217;28;20106;-87
2021/12/25 10:13:47;;;;;;;6.22;2.33;;;;;;;;;;5092828;28;20103;-87
2021/12/25 10:16:26;;;;;;;10.25;3.33;;;;;;;;;;5093021;28;20020;-87
2021/12/25 10:19:10;;;;;;;7.53;2.85;;;;;;;;;;5092423;28;20111;-86
2021/12/25 10:21:35;;;;;;;6.50;3.03;;;;;;;;;;5090288;28;20109;-87
2021/12/25 10:24:06;;;;;;;6.38;3.15;;;;;;;;;;5089141;28;20028;-86
2021/12/25 10:26:32;;;;;;;7.75;2.72;;;;;;;;;;5093674;28;20028;-86
2021/12/25 10:28:57;;;;;;;5.22;3.35;;;;;;;;;;5093829;28;20032;-87
2021/12/25 10:31:33;;;;;;;5.07;3.10;;;;;;;;;;5093086;28;20102;-87
2021/12/25 10:33:58;;;;;;;8.65;3.17;;;;;;;;;;5094547;28;20148;-87
2021/12/25 10:36:23;;;;;;;7.82;2.83;;;;;;;;;;5092575;28;20065;-87
2021/12/25 10:39:03;;;;;;;4.55;2.60;;;;;;;;;;5093867;28;20093;-87
2021/12/25 10:41:29;;;;;;;4.47;2.33;;;;;;;;;;5092614;28;20289;-87
2021/12/25 10:44:09;;;;;;;5.63;2.60;;;;;;;;;;5094082;28;20020;-86
2021/12/25 10:46:54;;;;;;;5.85;2.53;;;;;;;;;;5092328;28;20063;-91
2021/12/25 10:49:20;;;;;;;7.00;3.15;;;;;;;;;;5097279;28;20119;-87
2021/12/25 10:51:46;;;;;;;6.22;2.97;;;;;;;;;;5092618;28;20538;-87
2021/12/25 10:54:13;;;;;;;8.20;4.13;;;;;;;;;;5094608;28;20166;-86
2021/12/25 10:56:39;;;;;;;12.45;4.07;;;;;;;;;;5094825;28;20097;-86
2021/12/25 10:59:08;;;;;;;7.25;3.00;;;;;;;;;;5093845;28;20418;-86
2021/12/25 11:01:38;;;;;;;14.65;2.72;;;;;;;;;;5094138;28;20012;-86
2021/12/25 11:04:04;;;;;;;3.05;1.98;;;;;;;;;;5093542;28;20475;-86
2021/12/25 11:06:29;;;;;;;3.65;1.92;;;;;;;;;;5097140;28;20031;-87
2021/12/25 11:08:57;;;;;;;3.22;1.88;;;;;;;;;;5091116;28;20036;-87
2021/12/25 11:11:22;;;;;;;4.85;2.00;;;;;;;;;;5092851;28;20026;-87
2021/12/25 11:13:52;;;;;;;4.72;1.70;;;;;;;;;;5105489;28;20817;-87
2021/12/25 11:16:30;;;;;;;6.57;2.38;;;;;;;;;;5113073;28;20809;-87
2021/12/25 11:19:09;;;;;;;4.38;1.60;;;;;;;;;;5111766;28;20031;-87
2021/12/25 11:21:43;;;;;;;3.55;1.73;;;;;;;;;;5109745;28;20024;-88
2021/12/25 11:24:12;;;;;;;3.85;1.77;;;;;;;;;;5091494;28;20503;-87
2021/12/25 11:26:37;;;;;;;4.45;1.80;;;;;;;;;;5091559;28;20562;-87
2021/12/25 11:29:04;;;;;;;7.68;1.90;;;;;;;;;;5092944;28;20042;-87
2021/12/25 11:31:31;;;;;;;2.45;1.70;;;;;;;;;;5092221;28;20021;-87
2021/12/25 11:33:56;;;;;;;5.15;1.77;;;;;;;;;;5093110;28;20066;-87
2021/12/25 11:36:21;;;;;;;9.13;1.73;;;;;;;;;;5092354;28;20024;-87
2021/12/25 11:38:46;;;;;;;1.98;1.38;;;;;;;;;;5092897;28;20052;-87
2021/12/25 11:41:12;;;;;;;3.40;1.30;;;;;;;;;;5093056;28;20024;-87
2021/12/25 11:43:42;;;;;;;3.20;2.40;;;;;;;;;;5093996;28;20269;-88
2021/12/25 11:46:08;;;;;;;8.65;4.88;;;;;;;;;;5093494;28;20414;-89
2021/12/25 11:48:35;;;;;;;18.45;9.75;;;;;;;;;;5095935;28;20423;-88
2021/12/25 11:51:00;;;;;;;5.10;1.95;;;;;;;;;;5095894;28;20024;-88
2021/12/25 11:58:40;;;;;;;2.97;1.70;;;;;;;;;;5095810;28;20093;-88
2021/12/25 12:01:22;;;;;;;6.53;1.77;;;;;;;;;;5095589;28;20016;-89
2021/12/25 12:03:56;;;;;;;4.32;1.77;;;;;;;;;;5095336;28;20016;-88
2021/12/25 12:06:40;;;;;;;6.15;2.75;;;;;;;;;;5093965;28;20376;-88
2021/12/25 12:09:09;;;;;;;5.65;1.90;;;;;;;;;;5095241;28;20024;-89
2021/12/25 12:11:35;;;;;;;4.97;2.28;;;;;;;;;;5093806;28;20024;-88
2021/12/25 12:14:12;;;;;;;3.30;1.83;;;;;;;;;;5095152;28;20112;-87
2021/12/25 12:16:39;;;;;;;2.33;1.63;;;;;;;;;;5094950;28;20761;-88
2021/12/25 12:19:04;;;;;;;5.70;1.80;;;;;;;;;;5092977;28;20111;-88
2021/12/25 12:21:36;;;;;;;2.45;1.60;;;;;;;;;;5093257;28;20052;-88
2021/12/25 12:27:02;;;;;;;4.95;2.10;;;;;;;;;;5094912;28;20032;-88
2021/12/25 12:29:36;;;;;;;5.18;2.40;;;;;;;;;;5094537;28;20039;-88
2021/12/25 12:32:02;;;;;;;5.70;2.47;;;;;;;;;;5094672;28;20024;-87
2021/12/25 12:34:30;;;;;;;3.10;2.08;;;;;;;;;;5094630;28;20036;-88
2021/12/25 12:37:13;;;;;;;5.07;1.92;;;;;;;;;;5092919;28;20116;-88
2021/12/25 12:40:03;;;;;;;4.13;1.60;;;;;;;;;;5091727;28;20024;-88
2021/12/25 12:42:56;;;;;;;3.75;1.88;;;;;;;;;;5079096;28;20063;-88
2021/12/25 12:45:24;;;;;;;3.45;1.90;;;;;;;;;;5087449;28;20139;-88
2021/12/25 12:48:08;;;;;;;4.20;2.33;;;;;;;;;;5089254;28;20056;-89
2021/12/25 12:50:34;;;;;;;17.50;10.25;;;;;;;;;;5089971;28;20073;-89
2021/12/25 12:53:00;;;;;;;70.35;33.05;;;;;;;;;;5091498;28;20036;-89
2021/12/25 12:55:27;;;;;;;38.65;20.20;;;;;;;;;;5090163;28;20031;-88
2021/12/25 12:58:25;;;;;;;7.82;2.92;;;;;;;;;;5091286;28;20061;-88
2021/12/25 13:00:57;;;;;;;4.10;2.20;;;;;;;;;;5057244;28;20115;-88
2021/12/25 13:03:23;;;;;;;9.23;1.85;;;;;;;;;;5091147;28;20024;-89
2021/12/25 13:05:57;;;;;;;6.20;2.25;;;;;;;;;;5090841;28;20032;-88
2021/12/25 13:08:25;;;;;;;3.63;1.65;;;;;;;;;;5090945;28;20070;-88
2021/12/25 13:10:51;;;;;;;3.45;1.85;;;;;;;;;;5090158;28;20661;-88
2021/12/25 13:13:16;;;;;;;5.50;2.42;;;;;;;;;;5091036;28;20035;-88
2021/12/25 13:15:43;;;;;;;6.63;2.40;;;;;;;;;;5089680;28;20016;-88
2021/12/25 13:18:09;;;;;;;5.78;2.65;;;;;;;;;;5091586;28;20012;-88
2021/12/25 13:20:35;;;;;;;6.65;2.72;;;;;;;;;;5091132;28;20433;-87
2021/12/25 13:23:01;;;;;;;5.38;2.53;;;;;;;;;;5091744;28;20032;-88
2021/12/25 13:25:26;;;;;;;4.70;1.80;;;;;;;;;;5090865;28;20353;-90
2021/12/25 13:27:59;;;;;;;4.55;1.88;;;;;;;;;;5090204;28;20035;-87
2021/12/25 13:30:25;;;;;;;3.25;1.48;;;;;;;;;;5089713;28;20012;-88
2021/12/25 13:32:51;;;;;;;1.95;1.30;;;;;;;;;;5090524;28;20793;-87
2021/12/25 13:35:17;;;;;;;2.42;1.60;;;;;;;;;;5091344;28;20107;-87
2021/12/25 13:40:09;;;;;;;2.35;1.63;;;;;;;;;;5091164;22;20053;-93
2021/12/25 13:42:36;;;;;;;3.92;1.55;;;;;;;;;;5056219;28;20010;-93
2021/12/25 13:45:04;;;;;;;5.55;2.42;;;;;;;;;;5054737;28;20074;-93
2021/12/25 13:47:33;;;;;;;5.20;1.92;;;;;;;;;;5055538;28;20014;-94
2021/12/25 13:50:04;;;;;;;7.35;1.90;;;;;;;;;;5056038;28;20037;-94
2021/12/25 13:52:34;;;;;;;3.42;1.90;;;;;;;;;;5056592;28;20162;-93
2021/12/25 13:55:17;;;;;;;3.90;2.40;;;;;;;;;;5054281;28;20028;-94
2021/12/25 14:19:27;;;;;;;3.65;2.42;;;;;;;;;;5369804;22;20064;-93
2021/12/25 14:37:30;;;;;;;3.10;2.20;;;;;;;;;;5051153;28;20057;-87
2021/12/25 14:40:16;;;;;;;4.38;2.97;;;;;;;;;;5071343;28;20020;-88
2021/12/25 14:42:45;;;;;;;9.68;3.15;;;;;;;;;;5054904;28;20025;-87
2021/12/25 14:45:12;;;;;;;12.93;5.70;;;;;;;;;;5072630;28;20021;-87
2021/12/25 14:47:46;;;;;;;15.00;6.70;;;;;;;;;;5054804;28;20017;-87
2021/12/25 14:50:16;;;;;;;11.45;4.10;;;;;;;;;;5073166;28;20060;-89
2021/12/25 14:52:41;;;;;;;12.00;5.32;;;;;;;;;;5054458;28;20063;-87
2021/12/25 14:55:16;;;;;;;10.77;4.63;;;;;;;;;;5072256;28;20048;-87
2021/12/25 14:57:42;;;;;;;12.98;4.63;;;;;;;;;;5077171;28;20142;-88
2021/12/25 15:00:07;;;;;;;4.18;2.30;;;;;;;;;;5054602;28;20025;-87
2021/12/25 15:02:33;;;;;;;2.95;2.00;;;;;;;;;;5053991;28;20024;-87
2021/12/25 15:04:58;;;;;;;8.07;3.22;;;;;;;;;;5070297;28;20052;-87
2021/12/25 15:07:23;;;;;;;4.50;2.20;;;;;;;;;;5070171;28;20059;-88
2021/12/25 15:09:50;;;;;;;6.95;3.20;;;;;;;;;;5051440;28;20481;-87
2021/12/25 15:12:17;;;;;;;9.90;4.30;;;;;;;;;;5071216;28;20055;-88
2021/12/25 15:14:44;;;;;;;8.13;4.40;;;;;;;;;;5055099;28;20026;-87
2021/12/25 15:17:11;;;;;;;8.25;4.60;;;;;;;;;;5055080;28;20024;-88
2021/12/25 15:19:38;;;;;;;9.75;5.93;;;;;;;;;;5073499;28;20103;-88
2021/12/25 15:22:14;;;;;;;11.68;6.88;;;;;;;;;;5073374;28;20052;-87
2021/12/25 15:25:05;;;;;;;21.02;11.07;;;;;;;;;;5055846;28;20016;-89
2021/12/25 15:27:35;;;;;;;122.00;59.45;;;;;;;;;;5018494;28;20127;-87
2021/12/25 15:30:06;;;;;;;46.25;22.98;;;;;;;;;;5073139;28;20075;-88
2021/12/25 15:32:36;;;;;;;39.45;19.02;;;;;;;;;;5059248;28;20016;-88
2021/12/25 15:35:06;;;;;;;36.17;19.45;;;;;;;;;;5054631;28;20043;-87
2021/12/25 15:37:32;;;;;;;27.13;14.18;;;;;;;;;;5073096;28;20104;-87
2021/12/25 15:39:58;;;;;;;34.55;16.55;;;;;;;;;;5072767;28;20028;-87
2021/12/25 15:42:26;;;;;;;38.97;17.17;;;;;;;;;;5072963;28;20020;-87
2021/12/25 15:44:51;;;;;;;51.63;24.08;;;;;;;;;;5054335;28;20028;-87
2021/12/25 15:47:17;;;;;;;46.75;23.25;;;;;;;;;;5072457;28;20071;-87
2021/12/25 15:49:42;;;;;;;46.40;22.13;;;;;;;;;;5072459;28;20139;-87
2021/12/25 15:52:07;;;;;;;46.80;20.48;;;;;;;;;;5054463;28;20384;-87
2021/12/25 15:54:38;;;;;;;34.53;16.70;;;;;;;;;;5072524;28;20034;-88
2021/12/25 15:57:04;;;;;;;28.42;13.38;;;;;;;;;;5072490;28;20031;-87
2021/12/25 15:59:30;;;;;;;22.83;12.57;;;;;;;;;;5054038;28;20021;-87
2021/12/25 16:01:56;;;;;;;21.35;10.23;;;;;;;;;;5054346;28;20383;-86
2021/12/25 16:04:21;;;;;;;17.33;10.10;;;;;;;;;;5072264;28;20017;-85
2021/12/25 16:06:47;;;;;;;18.83;11.38;;;;;;;;;;5073413;28;20483;-88
2021/12/25 16:09:12;;;;;;;23.92;9.48;;;;;;;;;;5053705;28;20040;-87
2021/12/25 16:11:37;;;;;;;25.38;11.35;;;;;;;;;;5072704;28;20174;-87
2021/12/25 16:14:03;;;;;;;32.45;12.43;;;;;;;;;;5053784;28;20088;-88
2021/12/25 16:16:28;;;;;;;20.67;10.38;;;;;;;;;;5071988;28;20034;-87
2021/12/25 16:18:54;;;;;;;25.10;11.20;;;;;;;;;;5053879;28;20016;-88
2021/12/25 16:21:20;;;;;;;18.35;10.75;;;;;;;;;;5054080;28;20021;-87
2021/12/25 16:23:45;;;;;;;15.50;8.00;;;;;;;;;;5053751;28;20031;-88
2021/12/25 16:26:10;;;;;;;12.02;6.90;;;;;;;;;;5071930;28;20020;-88
2021/12/25 16:28:36;;;;;;;12.82;6.57;;;;;;;;;;5071759;28;20044;-88
2021/12/25 16:31:01;;;;;;;13.10;6.53;;;;;;;;;;5054591;28;20028;-88
2021/12/25 16:33:27;;;;;;;10.20;5.90;;;;;;;;;;5056366;28;20016;-87
2021/12/25 16:35:53;;;;;;;12.40;7.05;;;;;;;;;;5056433;28;20154;-87
2021/12/25 16:38:18;;;;;;;16.95;7.63;;;;;;;;;;5074419;28;20028;-88